sensor_id;sensor_type;location;lat;lon;timestamp;P1;durP1;ratioP1;P2;durP2;ratioP2
63112;SDS011;49206;48.020;21.378;2022-11-15T00:00:03;32.85;;;12.57;;
63112;SDS011;49206;48.020;21.378;2022-11-15T00:01:24;36.38;;;13.02;;
63112;SDS011;49206;48.020;21.378;2022-11-15T00:02:46;26.17;;;12.18;;
63112;SDS011;49206;48.020;21.378;2022-11-15T00:04:07;27.92;;;12.82;;
63112;SDS011;49206;48.020;21.378;2022-11-15T00:05:28;26.25;;;11.95;;
63112;SDS011;49206;48.020;21.378;2022-11-15T00:06:49;44.55;;;15.05;;
63112;SDS011;49206;48.020;21.378;2022-11-15T00:08:10;36.28;;;14.27;;
63112;SDS011;49206;48.020;21.378;2022-11-15T00:09:32;24.95;;;12.32;;
63112;SDS011;49206;48.020;21.378;2022-11-15T00:10:53;58.10;;;15.60;;
63112;SDS011;49206;48.020;21.378;2022-11-15T00:12:21;21.67;;;11.98;;
63112;SDS011;49206;48.020;21.378;2022-11-15T00:13:42;31.08;;;12.57;;
63112;SDS011;49206;48.020;21.378;2022-11-15T00:15:04;25.13;;;13.15;;
63112;SDS011;49206;48.020;21.378;2022-11-15T00:16:25;26.15;;;12.38;;
63112;SDS011;49206;48.020;21.378;2022-11-15T00:17:49;39.63;;;13.48;;
63112;SDS011;49206;48.020;21.378;2022-11-15T00:19:10;29.63;;;11.90;;
63112;SDS011;49206;48.020;21.378;2022-11-15T00:20:33;22.20;;;11.77;;
63112;SDS011;49206;48.020;21.378;2022-11-15T00:21:54;27.13;;;12.98;;
63112;SDS011;49206;48.020;21.378;2022-11-15T00:23:15;33.50;;;13.27;;
63112;SDS011;49206;48.020;21.378;2022-11-15T00:24:36;26.05;;;11.43;;
63112;SDS011;49206;48.020;21.378;2022-11-15T00:25:58;25.33;;;12.65;;
63112;SDS011;49206;48.020;21.378;2022-11-15T00:27:19;38.30;;;14.15;;
63112;SDS011;49206;48.020;21.378;2022-11-15T00:28:40;29.20;;;12.23;;
63112;SDS011;49206;48.020;21.378;2022-11-15T00:30:02;32.95;;;12.13;;
63112;SDS011;49206;48.020;21.378;2022-11-15T00:31:31;18.20;;;11.02;;
63112;SDS011;49206;48.020;21.378;2022-11-15T00:32:53;24.38;;;11.80;;
63112;SDS011;49206;48.020;21.378;2022-11-15T00:34:14;16.80;;;10.60;;
63112;SDS011;49206;48.020;21.378;2022-11-15T00:35:36;17.38;;;11.07;;
63112;SDS011;49206;48.020;21.378;2022-11-15T00:36:58;21.67;;;12.32;;
63112;SDS011;49206;48.020;21.378;2022-11-15T00:38:20;19.35;;;10.75;;
63112;SDS011;49206;48.020;21.378;2022-11-15T00:39:41;29.40;;;11.18;;
63112;SDS011;49206;48.020;21.378;2022-11-15T00:41:04;20.63;;;12.30;;
63112;SDS011;49206;48.020;21.378;2022-11-15T00:42:30;17.55;;;11.80;;
63112;SDS011;49206;48.020;21.378;2022-11-15T00:43:52;18.40;;;10.77;;
63112;SDS011;49206;48.020;21.378;2022-11-15T00:45:13;40.08;;;13.25;;
63112;SDS011;49206;48.020;21.378;2022-11-15T00:46:36;19.75;;;11.77;;
63112;SDS011;49206;48.020;21.378;2022-11-15T00:47:58;51.25;;;11.90;;
63112;SDS011;49206;48.020;21.378;2022-11-15T00:49:19;40.35;;;13.18;;
63112;SDS011;49206;48.020;21.378;2022-11-15T00:50:40;31.33;;;11.38;;
63112;SDS011;49206;48.020;21.378;2022-11-15T00:52:02;32.85;;;12.30;;
63112;SDS011;49206;48.020;21.378;2022-11-15T00:53:23;50.83;;;13.75;;
63112;SDS011;49206;48.020;21.378;2022-11-15T00:54:44;51.90;;;12.43;;
63112;SDS011;49206;48.020;21.378;2022-11-15T00:56:06;58.65;;;14.85;;
63112;SDS011;49206;48.020;21.378;2022-11-15T00:57:27;53.55;;;14.57;;
63112;SDS011;49206;48.020;21.378;2022-11-15T00:58:47;18.95;;;10.55;;
63112;SDS011;49206;48.020;21.378;2022-11-15T01:00:09;28.63;;;12.75;;
63112;SDS011;49206;48.020;21.378;2022-11-15T01:01:31;71.65;;;13.60;;
63112;SDS011;49206;48.020;21.378;2022-11-15T01:02:52;31.38;;;11.60;;
63112;SDS011;49206;48.020;21.378;2022-11-15T01:04:13;72.28;;;13.82;;
63112;SDS011;49206;48.020;21.378;2022-11-15T01:05:36;31.63;;;11.55;;
63112;SDS011;49206;48.020;21.378;2022-11-15T01:06:57;30.25;;;12.68;;
63112;SDS011;49206;48.020;21.378;2022-11-15T01:08:19;66.22;;;15.18;;
63112;SDS011;49206;48.020;21.378;2022-11-15T01:09:39;31.00;;;12.95;;
63112;SDS011;49206;48.020;21.378;2022-11-15T01:11:01;35.95;;;12.95;;
63112;SDS011;49206;48.020;21.378;2022-11-15T01:12:25;22.58;;;12.43;;
63112;SDS011;49206;48.020;21.378;2022-11-15T01:13:45;42.17;;;14.23;;
63112;SDS011;49206;48.020;21.378;2022-11-15T01:15:06;36.70;;;12.52;;
63112;SDS011;49206;48.020;21.378;2022-11-15T01:16:28;66.88;;;13.75;;
63112;SDS011;49206;48.020;21.378;2022-11-15T01:17:48;34.08;;;12.73;;
63112;SDS011;49206;48.020;21.378;2022-11-15T01:19:10;36.47;;;12.65;;
63112;SDS011;49206;48.020;21.378;2022-11-15T01:20:30;28.67;;;11.70;;
63112;SDS011;49206;48.020;21.378;2022-11-15T01:21:51;30.77;;;11.60;;
63112;SDS011;49206;48.020;21.378;2022-11-15T01:23:12;21.00;;;11.30;;
63112;SDS011;49206;48.020;21.378;2022-11-15T01:24:33;52.92;;;16.52;;
63112;SDS011;49206;48.020;21.378;2022-11-15T01:25:58;23.27;;;11.93;;
63112;SDS011;49206;48.020;21.378;2022-11-15T01:27:20;44.78;;;13.65;;
63112;SDS011;49206;48.020;21.378;2022-11-15T01:28:41;35.13;;;11.40;;
63112;SDS011;49206;48.020;21.378;2022-11-15T01:30:02;39.63;;;12.85;;
63112;SDS011;49206;48.020;21.378;2022-11-15T01:31:24;24.75;;;12.52;;
63112;SDS011;49206;48.020;21.378;2022-11-15T01:32:45;54.80;;;14.35;;
63112;SDS011;49206;48.020;21.378;2022-11-15T01:34:06;19.08;;;12.43;;
63112;SDS011;49206;48.020;21.378;2022-11-15T01:35:27;31.30;;;12.75;;
63112;SDS011;49206;48.020;21.378;2022-11-15T01:36:48;29.83;;;11.90;;
63112;SDS011;49206;48.020;21.378;2022-11-15T01:38:09;33.28;;;13.30;;
63112;SDS011;49206;48.020;21.378;2022-11-15T01:39:30;23.52;;;11.60;;
63112;SDS011;49206;48.020;21.378;2022-11-15T01:40:52;31.58;;;12.10;;
63112;SDS011;49206;48.020;21.378;2022-11-15T01:42:13;46.40;;;12.75;;
63112;SDS011;49206;48.020;21.378;2022-11-15T01:43:35;26.13;;;11.85;;
63112;SDS011;49206;48.020;21.378;2022-11-15T01:44:57;20.92;;;12.00;;
63112;SDS011;49206;48.020;21.378;2022-11-15T01:47:45;51.65;;;11.88;;
63112;SDS011;49206;48.020;21.378;2022-11-15T01:49:13;53.28;;;12.43;;
63112;SDS011;49206;48.020;21.378;2022-11-15T01:50:37;26.65;;;11.48;;
63112;SDS011;49206;48.020;21.378;2022-11-15T01:52:05;22.20;;;12.43;;
63112;SDS011;49206;48.020;21.378;2022-11-15T01:53:30;29.42;;;12.35;;
63112;SDS011;49206;48.020;21.378;2022-11-15T01:55:16;17.55;;;11.07;;
63112;SDS011;49206;48.020;21.378;2022-11-15T01:56:45;22.55;;;12.05;;
63112;SDS011;49206;48.020;21.378;2022-11-15T01:58:16;29.02;;;11.45;;
63112;SDS011;49206;48.020;21.378;2022-11-15T01:59:37;18.25;;;11.48;;
63112;SDS011;49206;48.020;21.378;2022-11-15T02:01:01;20.02;;;12.88;;
63112;SDS011;49206;48.020;21.378;2022-11-15T02:02:23;21.52;;;11.60;;
63112;SDS011;49206;48.020;21.378;2022-11-15T02:03:46;21.77;;;11.50;;
63112;SDS011;49206;48.020;21.378;2022-11-15T02:05:13;21.10;;;12.60;;
63112;SDS011;49206;48.020;21.378;2022-11-15T02:06:34;41.88;;;13.25;;
63112;SDS011;49206;48.020;21.378;2022-11-15T02:07:56;20.30;;;11.98;;
63112;SDS011;49206;48.020;21.378;2022-11-15T02:09:18;21.15;;;11.18;;
63112;SDS011;49206;48.020;21.378;2022-11-15T02:10:40;17.55;;;11.13;;
63112;SDS011;49206;48.020;21.378;2022-11-15T02:12:00;26.88;;;11.75;;
63112;SDS011;49206;48.020;21.378;2022-11-15T02:13:22;48.67;;;13.30;;
63112;SDS011;49206;48.020;21.378;2022-11-15T02:14:45;62.35;;;13.98;;
63112;SDS011;49206;48.020;21.378;2022-11-15T02:16:27;31.50;;;10.93;;
63112;SDS011;49206;48.020;21.378;2022-11-15T02:18:12;29.50;;;12.10;;
63112;SDS011;49206;48.020;21.378;2022-11-15T02:19:57;19.13;;;10.55;;
63112;SDS011;49206;48.020;21.378;2022-11-15T02:28:10;25.58;;;11.80;;
63112;SDS011;49206;48.020;21.378;2022-11-15T02:36:29;36.05;;;12.15;;
63112;SDS011;49206;48.020;21.378;2022-11-15T02:38:07;90.28;;;13.93;;
63112;SDS011;49206;48.020;21.378;2022-11-15T02:42:31;68.35;;;12.43;;
63112;SDS011;49206;48.020;21.378;2022-11-15T02:44:20;43.65;;;10.05;;
63112;SDS011;49206;48.020;21.378;2022-11-15T02:45:46;45.03;;;10.27;;
63112;SDS011;49206;48.020;21.378;2022-11-15T02:47:11;53.10;;;14.77;;
63112;SDS011;49206;48.020;21.378;2022-11-15T02:48:37;26.05;;;12.02;;
63112;SDS011;49206;48.020;21.378;2022-11-15T02:49:58;34.65;;;11.77;;
63112;SDS011;49206;48.020;21.378;2022-11-15T02:51:23;28.77;;;11.85;;
63112;SDS011;49206;48.020;21.378;2022-11-15T02:52:45;24.83;;;11.77;;
63112;SDS011;49206;48.020;21.378;2022-11-15T02:54:10;25.90;;;11.48;;
63112;SDS011;49206;48.020;21.378;2022-11-15T02:57:01;47.28;;;11.82;;
63112;SDS011;49206;48.020;21.378;2022-11-15T03:00:09;62.50;;;12.60;;
63112;SDS011;49206;48.020;21.378;2022-11-15T03:04:57;22.73;;;11.07;;
63112;SDS011;49206;48.020;21.378;2022-11-15T03:06:42;36.05;;;12.98;;
63112;SDS011;49206;48.020;21.378;2022-11-15T03:08:22;44.03;;;11.18;;
63112;SDS011;49206;48.020;21.378;2022-11-15T03:09:53;27.08;;;10.32;;
63112;SDS011;49206;48.020;21.378;2022-11-15T03:11:29;52.55;;;12.38;;
63112;SDS011;49206;48.020;21.378;2022-11-15T03:12:57;22.67;;;10.75;;
63112;SDS011;49206;48.020;21.378;2022-11-15T03:15:56;24.30;;;13.45;;
63112;SDS011;49206;48.020;21.378;2022-11-15T03:19:12;20.88;;;10.50;;
63112;SDS011;49206;48.020;21.378;2022-11-15T03:20:36;92.55;;;14.50;;
63112;SDS011;49206;48.020;21.378;2022-11-15T03:21:58;21.83;;;11.02;;
63112;SDS011;49206;48.020;21.378;2022-11-15T03:23:23;17.05;;;10.45;;
63112;SDS011;49206;48.020;21.378;2022-11-15T03:24:47;16.42;;;11.23;;
63112;SDS011;49206;48.020;21.378;2022-11-15T03:26:14;41.92;;;12.77;;
63112;SDS011;49206;48.020;21.378;2022-11-15T03:27:41;17.70;;;9.85;;
63112;SDS011;49206;48.020;21.378;2022-11-15T03:29:11;19.45;;;11.80;;
63112;SDS011;49206;48.020;21.378;2022-11-15T03:30:35;35.92;;;12.57;;
63112;SDS011;49206;48.020;21.378;2022-11-15T03:32:00;20.90;;;11.93;;
63112;SDS011;49206;48.020;21.378;2022-11-15T03:33:24;22.25;;;13.13;;
63112;SDS011;49206;48.020;21.378;2022-11-15T03:34:50;18.42;;;11.48;;
63112;SDS011;49206;48.020;21.378;2022-11-15T03:36:16;23.10;;;12.18;;
63112;SDS011;49206;48.020;21.378;2022-11-15T03:39:03;42.55;;;12.40;;
63112;SDS011;49206;48.020;21.378;2022-11-15T03:40:39;51.78;;;11.80;;
63112;SDS011;49206;48.020;21.378;2022-11-15T03:42:12;33.80;;;12.52;;
63112;SDS011;49206;48.020;21.378;2022-11-15T03:43:46;19.42;;;9.48;;
63112;SDS011;49206;48.020;21.378;2022-11-15T03:45:26;80.85;;;15.55;;
63112;SDS011;49206;48.020;21.378;2022-11-15T03:46:56;62.20;;;12.77;;
63112;SDS011;49206;48.020;21.378;2022-11-15T03:48:28;21.73;;;9.95;;
63112;SDS011;49206;48.020;21.378;2022-11-15T03:50:01;38.53;;;12.25;;
63112;SDS011;49206;48.020;21.378;2022-11-15T03:51:28;19.02;;;10.85;;
63112;SDS011;49206;48.020;21.378;2022-11-15T03:52:50;29.90;;;12.27;;
63112;SDS011;49206;48.020;21.378;2022-11-15T03:54:12;18.17;;;11.15;;
63112;SDS011;49206;48.020;21.378;2022-11-15T03:55:34;18.58;;;11.13;;
63112;SDS011;49206;48.020;21.378;2022-11-15T03:56:55;19.75;;;11.20;;
63112;SDS011;49206;48.020;21.378;2022-11-15T03:58:17;33.50;;;11.25;;
63112;SDS011;49206;48.020;21.378;2022-11-15T03:59:39;26.83;;;11.38;;
63112;SDS011;49206;48.020;21.378;2022-11-15T04:01:00;43.80;;;13.88;;
63112;SDS011;49206;48.020;21.378;2022-11-15T04:02:21;49.55;;;11.95;;
63112;SDS011;49206;48.020;21.378;2022-11-15T04:03:42;23.98;;;11.70;;
63112;SDS011;49206;48.020;21.378;2022-11-15T04:05:03;27.65;;;12.65;;
63112;SDS011;49206;48.020;21.378;2022-11-15T04:06:24;19.90;;;10.25;;
63112;SDS011;49206;48.020;21.378;2022-11-15T04:07:45;71.38;;;14.52;;
63112;SDS011;49206;48.020;21.378;2022-11-15T04:09:06;64.38;;;12.32;;
63112;SDS011;49206;48.020;21.378;2022-11-15T04:10:27;31.83;;;13.18;;
63112;SDS011;49206;48.020;21.378;2022-11-15T04:11:48;32.20;;;11.95;;
63112;SDS011;49206;48.020;21.378;2022-11-15T04:13:09;47.75;;;13.20;;
63112;SDS011;49206;48.020;21.378;2022-11-15T04:14:30;33.47;;;10.27;;
63112;SDS011;49206;48.020;21.378;2022-11-15T04:15:51;41.17;;;9.93;;
63112;SDS011;49206;48.020;21.378;2022-11-15T04:17:12;15.75;;;9.73;;
63112;SDS011;49206;48.020;21.378;2022-11-15T04:18:43;15.40;;;8.82;;
63112;SDS011;49206;48.020;21.378;2022-11-15T04:20:05;35.60;;;10.75;;
63112;SDS011;49206;48.020;21.378;2022-11-15T04:21:47;40.88;;;10.15;;
63112;SDS011;49206;48.020;21.378;2022-11-15T04:23:27;17.83;;;8.73;;
63112;SDS011;49206;48.020;21.378;2022-11-15T04:25:07;44.90;;;10.85;;
63112;SDS011;49206;48.020;21.378;2022-11-15T04:26:28;17.83;;;9.23;;
63112;SDS011;49206;48.020;21.378;2022-11-15T04:27:49;17.55;;;8.38;;
63112;SDS011;49206;48.020;21.378;2022-11-15T04:29:09;32.38;;;12.27;;
63112;SDS011;49206;48.020;21.378;2022-11-15T04:30:49;20.23;;;9.63;;
63112;SDS011;49206;48.020;21.378;2022-11-15T04:32:11;15.68;;;8.70;;
63112;SDS011;49206;48.020;21.378;2022-11-15T04:33:32;43.13;;;11.23;;
63112;SDS011;49206;48.020;21.378;2022-11-15T04:34:55;65.75;;;10.70;;
63112;SDS011;49206;48.020;21.378;2022-11-15T04:36:16;40.47;;;11.63;;
63112;SDS011;49206;48.020;21.378;2022-11-15T04:37:56;48.97;;;11.15;;
63112;SDS011;49206;48.020;21.378;2022-11-15T04:39:18;80.55;;;12.70;;
63112;SDS011;49206;48.020;21.378;2022-11-15T04:40:39;62.20;;;11.20;;
63112;SDS011;49206;48.020;21.378;2022-11-15T04:42:00;69.45;;;12.35;;
63112;SDS011;49206;48.020;21.378;2022-11-15T04:43:21;14.75;;;8.43;;
63112;SDS011;49206;48.020;21.378;2022-11-15T04:44:42;29.42;;;9.65;;
63112;SDS011;49206;48.020;21.378;2022-11-15T04:46:03;40.50;;;10.30;;
63112;SDS011;49206;48.020;21.378;2022-11-15T04:47:23;16.92;;;9.40;;
63112;SDS011;49206;48.020;21.378;2022-11-15T04:48:44;43.45;;;11.35;;
63112;SDS011;49206;48.020;21.378;2022-11-15T04:50:06;46.72;;;12.15;;
63112;SDS011;49206;48.020;21.378;2022-11-15T04:51:27;22.92;;;10.75;;
63112;SDS011;49206;48.020;21.378;2022-11-15T04:52:50;40.65;;;11.70;;
63112;SDS011;49206;48.020;21.378;2022-11-15T04:54:12;19.05;;;9.90;;
63112;SDS011;49206;48.020;21.378;2022-11-15T04:55:33;50.40;;;12.68;;
63112;SDS011;49206;48.020;21.378;2022-11-15T04:56:54;37.25;;;11.48;;
63112;SDS011;49206;48.020;21.378;2022-11-15T04:58:17;49.47;;;11.57;;
63112;SDS011;49206;48.020;21.378;2022-11-15T04:59:38;52.95;;;13.18;;
63112;SDS011;49206;48.020;21.378;2022-11-15T05:01:10;37.95;;;10.93;;
63112;SDS011;49206;48.020;21.378;2022-11-15T05:02:32;27.35;;;12.13;;
63112;SDS011;49206;48.020;21.378;2022-11-15T05:04:11;49.65;;;11.60;;
63112;SDS011;49206;48.020;21.378;2022-11-15T05:05:42;18.75;;;10.52;;
63112;SDS011;49206;48.020;21.378;2022-11-15T05:07:03;52.60;;;12.23;;
63112;SDS011;49206;48.020;21.378;2022-11-15T05:08:25;20.27;;;11.70;;
63112;SDS011;49206;48.020;21.378;2022-11-15T05:09:46;72.13;;;15.07;;
63112;SDS011;49206;48.020;21.378;2022-11-15T05:11:07;64.13;;;15.60;;
63112;SDS011;49206;48.020;21.378;2022-11-15T05:12:28;21.55;;;11.75;;
63112;SDS011;49206;48.020;21.378;2022-11-15T05:13:49;21.42;;;13.52;;
63112;SDS011;49206;48.020;21.378;2022-11-15T05:15:10;71.72;;;15.40;;
63112;SDS011;49206;48.020;21.378;2022-11-15T05:16:31;26.05;;;13.60;;
63112;SDS011;49206;48.020;21.378;2022-11-15T05:17:56;27.42;;;12.18;;
63112;SDS011;49206;48.020;21.378;2022-11-15T05:19:18;49.10;;;13.70;;
63112;SDS011;49206;48.020;21.378;2022-11-15T05:20:39;27.88;;;11.40;;
63112;SDS011;49206;48.020;21.378;2022-11-15T05:22:00;32.28;;;14.27;;
63112;SDS011;49206;48.020;21.378;2022-11-15T05:23:21;47.60;;;13.13;;
63112;SDS011;49206;48.020;21.378;2022-11-15T05:24:42;32.85;;;12.90;;
63112;SDS011;49206;48.020;21.378;2022-11-15T05:26:03;51.00;;;14.20;;
63112;SDS011;49206;48.020;21.378;2022-11-15T05:27:28;72.10;;;14.38;;
63112;SDS011;49206;48.020;21.378;2022-11-15T05:28:56;24.50;;;12.15;;
63112;SDS011;49206;48.020;21.378;2022-11-15T05:30:18;35.45;;;13.25;;
63112;SDS011;49206;48.020;21.378;2022-11-15T05:31:40;50.70;;;14.63;;
63112;SDS011;49206;48.020;21.378;2022-11-15T05:33:02;31.42;;;11.68;;
63112;SDS011;49206;48.020;21.378;2022-11-15T05:34:23;37.97;;;13.13;;
63112;SDS011;49206;48.020;21.378;2022-11-15T05:35:46;70.28;;;17.55;;
63112;SDS011;49206;48.020;21.378;2022-11-15T05:37:15;30.67;;;12.82;;
63112;SDS011;49206;48.020;21.378;2022-11-15T05:38:53;23.52;;;11.55;;
63112;SDS011;49206;48.020;21.378;2022-11-15T05:40:14;57.83;;;13.52;;
63112;SDS011;49206;48.020;21.378;2022-11-15T05:41:42;59.97;;;13.73;;
63112;SDS011;49206;48.020;21.378;2022-11-15T05:43:06;31.52;;;11.90;;
63112;SDS011;49206;48.020;21.378;2022-11-15T05:44:28;33.35;;;15.77;;
63112;SDS011;49206;48.020;21.378;2022-11-15T05:45:49;55.45;;;14.18;;
63112;SDS011;49206;48.020;21.378;2022-11-15T05:47:11;20.05;;;12.30;;
63112;SDS011;49206;48.020;21.378;2022-11-15T05:48:36;52.40;;;13.90;;
63112;SDS011;49206;48.020;21.378;2022-11-15T05:50:00;51.38;;;14.27;;
63112;SDS011;49206;48.020;21.378;2022-11-15T05:51:21;64.03;;;19.27;;
63112;SDS011;49206;48.020;21.378;2022-11-15T05:52:43;31.67;;;12.07;;
63112;SDS011;49206;48.020;21.378;2022-11-15T05:54:06;67.60;;;16.33;;
63112;SDS011;49206;48.020;21.378;2022-11-15T05:55:27;45.10;;;13.70;;
63112;SDS011;49206;48.020;21.378;2022-11-15T05:56:48;39.20;;;13.32;;
63112;SDS011;49206;48.020;21.378;2022-11-15T05:58:11;28.90;;;12.05;;
63112;SDS011;49206;48.020;21.378;2022-11-15T05:59:32;32.75;;;13.13;;
63112;SDS011;49206;48.020;21.378;2022-11-15T06:00:55;69.53;;;17.20;;
63112;SDS011;49206;48.020;21.378;2022-11-15T06:02:24;53.65;;;14.20;;
63112;SDS011;49206;48.020;21.378;2022-11-15T06:03:45;20.30;;;10.82;;
63112;SDS011;49206;48.020;21.378;2022-11-15T06:05:06;41.17;;;12.50;;
63112;SDS011;49206;48.020;21.378;2022-11-15T06:06:28;54.10;;;13.45;;
63112;SDS011;49206;48.020;21.378;2022-11-15T06:07:49;57.47;;;12.80;;
63112;SDS011;49206;48.020;21.378;2022-11-15T06:09:10;19.63;;;11.30;;
63112;SDS011;49206;48.020;21.378;2022-11-15T06:10:32;47.60;;;11.90;;
63112;SDS011;49206;48.020;21.378;2022-11-15T06:11:53;20.77;;;11.48;;
63112;SDS011;49206;48.020;21.378;2022-11-15T06:13:14;19.55;;;11.80;;
63112;SDS011;49206;48.020;21.378;2022-11-15T06:14:35;22.00;;;11.93;;
63112;SDS011;49206;48.020;21.378;2022-11-15T06:15:56;19.15;;;11.27;;
63112;SDS011;49206;48.020;21.378;2022-11-15T06:17:17;33.53;;;12.32;;
63112;SDS011;49206;48.020;21.378;2022-11-15T06:18:39;56.95;;;13.30;;
63112;SDS011;49206;48.020;21.378;2022-11-15T06:20:00;25.15;;;11.10;;
63112;SDS011;49206;48.020;21.378;2022-11-15T06:21:21;31.98;;;12.93;;
63112;SDS011;49206;48.020;21.378;2022-11-15T06:22:42;66.22;;;12.93;;
63112;SDS011;49206;48.020;21.378;2022-11-15T06:24:04;73.93;;;14.27;;
63112;SDS011;49206;48.020;21.378;2022-11-15T06:25:26;58.83;;;13.85;;
63112;SDS011;49206;48.020;21.378;2022-11-15T06:26:47;43.95;;;13.82;;
63112;SDS011;49206;48.020;21.378;2022-11-15T06:28:08;26.17;;;12.50;;
63112;SDS011;49206;48.020;21.378;2022-11-15T06:29:29;44.47;;;15.00;;
63112;SDS011;49206;48.020;21.378;2022-11-15T06:30:49;39.60;;;12.90;;
63112;SDS011;49206;48.020;21.378;2022-11-15T06:32:12;34.60;;;13.07;;
63112;SDS011;49206;48.020;21.378;2022-11-15T06:33:33;36.80;;;17.17;;
63112;SDS011;49206;48.020;21.378;2022-11-15T06:34:54;40.90;;;15.52;;
63112;SDS011;49206;48.020;21.378;2022-11-15T06:36:15;60.65;;;18.92;;
63112;SDS011;49206;48.020;21.378;2022-11-15T06:37:37;37.75;;;12.52;;
63112;SDS011;49206;48.020;21.378;2022-11-15T06:38:59;45.40;;;13.88;;
63112;SDS011;49206;48.020;21.378;2022-11-15T06:40:21;21.63;;;12.18;;
63112;SDS011;49206;48.020;21.378;2022-11-15T06:41:42;26.25;;;13.55;;
63112;SDS011;49206;48.020;21.378;2022-11-15T06:43:03;25.95;;;15.85;;
63112;SDS011;49206;48.020;21.378;2022-11-15T06:44:25;30.38;;;16.58;;
63112;SDS011;49206;48.020;21.378;2022-11-15T06:45:46;31.50;;;16.83;;
63112;SDS011;49206;48.020;21.378;2022-11-15T06:47:07;28.45;;;15.85;;
63112;SDS011;49206;48.020;21.378;2022-11-15T06:48:29;47.00;;;16.70;;
63112;SDS011;49206;48.020;21.378;2022-11-15T06:49:50;34.13;;;15.90;;
63112;SDS011;49206;48.020;21.378;2022-11-15T06:51:11;30.63;;;15.25;;
63112;SDS011;49206;48.020;21.378;2022-11-15T06:52:32;28.80;;;15.15;;
63112;SDS011;49206;48.020;21.378;2022-11-15T06:53:53;36.55;;;15.68;;
63112;SDS011;49206;48.020;21.378;2022-11-15T06:55:14;32.47;;;17.45;;
63112;SDS011;49206;48.020;21.378;2022-11-15T06:56:36;35.70;;;17.02;;
63112;SDS011;49206;48.020;21.378;2022-11-15T06:58:00;29.20;;;17.02;;
63112;SDS011;49206;48.020;21.378;2022-11-15T06:59:24;28.55;;;17.60;;
63112;SDS011;49206;48.020;21.378;2022-11-15T07:00:48;27.25;;;16.55;;
63112;SDS011;49206;48.020;21.378;2022-11-15T07:02:12;29.20;;;16.00;;
63112;SDS011;49206;48.020;21.378;2022-11-15T07:03:40;31.20;;;16.70;;
63112;SDS011;49206;48.020;21.378;2022-11-15T07:05:08;29.95;;;15.40;;
63112;SDS011;49206;48.020;21.378;2022-11-15T07:06:32;22.52;;;13.77;;
63112;SDS011;49206;48.020;21.378;2022-11-15T07:07:53;27.92;;;14.90;;
63112;SDS011;49206;48.020;21.378;2022-11-15T07:09:15;28.83;;;16.00;;
63112;SDS011;49206;48.020;21.378;2022-11-15T07:10:37;51.53;;;15.18;;
63112;SDS011;49206;48.020;21.378;2022-11-15T07:11:57;20.83;;;11.73;;
63112;SDS011;49206;48.020;21.378;2022-11-15T07:13:25;20.33;;;12.25;;
63112;SDS011;49206;48.020;21.378;2022-11-15T07:14:47;19.83;;;11.50;;
63112;SDS011;49206;48.020;21.378;2022-11-15T07:16:09;26.15;;;11.60;;
63112;SDS011;49206;48.020;21.378;2022-11-15T07:17:30;23.40;;;12.85;;
63112;SDS011;49206;48.020;21.378;2022-11-15T07:18:51;24.13;;;12.98;;
63112;SDS011;49206;48.020;21.378;2022-11-15T07:20:13;23.55;;;13.13;;
63112;SDS011;49206;48.020;21.378;2022-11-15T07:21:34;23.75;;;14.25;;
63112;SDS011;49206;48.020;21.378;2022-11-15T07:23:02;25.30;;;13.90;;
63112;SDS011;49206;48.020;21.378;2022-11-15T07:34:56;24.95;;;16.33;;
63112;SDS011;49206;48.020;21.378;2022-11-15T07:36:17;22.10;;;13.40;;
63112;SDS011;49206;48.020;21.378;2022-11-15T07:37:38;24.58;;;16.35;;
63112;SDS011;49206;48.020;21.378;2022-11-15T07:38:59;31.65;;;17.33;;
63112;SDS011;49206;48.020;21.378;2022-11-15T07:40:20;33.63;;;15.73;;
63112;SDS011;49206;48.020;21.378;2022-11-15T07:41:42;25.55;;;15.43;;
63112;SDS011;49206;48.020;21.378;2022-11-15T07:43:04;21.48;;;13.57;;
63112;SDS011;49206;48.020;21.378;2022-11-15T07:44:26;17.85;;;12.18;;
63112;SDS011;49206;48.020;21.378;2022-11-15T07:45:47;18.63;;;11.45;;
63112;SDS011;49206;48.020;21.378;2022-11-15T07:47:08;18.95;;;13.05;;
63112;SDS011;49206;48.020;21.378;2022-11-15T07:48:32;19.73;;;13.27;;
63112;SDS011;49206;48.020;21.378;2022-11-15T07:50:03;22.00;;;11.93;;
63112;SDS011;49206;48.020;21.378;2022-11-15T07:51:25;20.00;;;11.77;;
63112;SDS011;49206;48.020;21.378;2022-11-15T07:52:45;18.55;;;11.95;;
63112;SDS011;49206;48.020;21.378;2022-11-15T07:54:06;18.33;;;11.95;;
63112;SDS011;49206;48.020;21.378;2022-11-15T07:55:27;18.42;;;12.30;;
63112;SDS011;49206;48.020;21.378;2022-11-15T07:56:49;20.05;;;13.45;;
63112;SDS011;49206;48.020;21.378;2022-11-15T07:58:11;36.13;;;20.00;;
63112;SDS011;49206;48.020;21.378;2022-11-15T07:59:32;36.20;;;20.83;;
63112;SDS011;49206;48.020;21.378;2022-11-15T08:00:55;32.13;;;20.45;;
63112;SDS011;49206;48.020;21.378;2022-11-15T08:02:16;33.05;;;19.90;;
63112;SDS011;49206;48.020;21.378;2022-11-15T08:03:38;25.95;;;15.38;;
63112;SDS011;49206;48.020;21.378;2022-11-15T08:04:59;23.15;;;15.00;;
63112;SDS011;49206;48.020;21.378;2022-11-15T08:06:20;25.25;;;15.68;;
63112;SDS011;49206;48.020;21.378;2022-11-15T08:07:41;22.35;;;14.15;;
63112;SDS011;49206;48.020;21.378;2022-11-15T08:09:03;24.33;;;14.50;;
63112;SDS011;49206;48.020;21.378;2022-11-15T08:10:25;20.10;;;13.23;;
63112;SDS011;49206;48.020;21.378;2022-11-15T08:11:47;23.63;;;13.68;;
63112;SDS011;49206;48.020;21.378;2022-11-15T08:13:09;21.83;;;13.18;;
63112;SDS011;49206;48.020;21.378;2022-11-15T08:14:31;24.83;;;14.38;;
63112;SDS011;49206;48.020;21.378;2022-11-15T08:15:56;22.15;;;14.52;;
63112;SDS011;49206;48.020;21.378;2022-11-15T08:17:25;24.02;;;15.00;;
63112;SDS011;49206;48.020;21.378;2022-11-15T08:18:51;25.15;;;14.63;;
63112;SDS011;49206;48.020;21.378;2022-11-15T08:20:11;23.55;;;13.75;;
63112;SDS011;49206;48.020;21.378;2022-11-15T08:21:32;22.92;;;14.48;;
63112;SDS011;49206;48.020;21.378;2022-11-15T08:22:53;26.17;;;14.52;;
63112;SDS011;49206;48.020;21.378;2022-11-15T08:24:14;24.17;;;14.98;;
63112;SDS011;49206;48.020;21.378;2022-11-15T08:25:35;23.98;;;15.45;;
63112;SDS011;49206;48.020;21.378;2022-11-15T08:26:57;26.75;;;15.82;;
63112;SDS011;49206;48.020;21.378;2022-11-15T08:28:22;28.73;;;18.02;;
63112;SDS011;49206;48.020;21.378;2022-11-15T08:29:45;32.28;;;19.20;;
63112;SDS011;49206;48.020;21.378;2022-11-15T08:31:14;27.88;;;17.67;;
63112;SDS011;49206;48.020;21.378;2022-11-15T08:32:38;29.00;;;15.63;;
63112;SDS011;49206;48.020;21.378;2022-11-15T08:34:00;29.33;;;14.98;;
63112;SDS011;49206;48.020;21.378;2022-11-15T08:35:22;24.55;;;15.57;;
63112;SDS011;49206;48.020;21.378;2022-11-15T08:36:48;26.52;;;15.80;;
63112;SDS011;49206;48.020;21.378;2022-11-15T08:38:10;27.60;;;15.93;;
63112;SDS011;49206;48.020;21.378;2022-11-15T08:39:32;26.45;;;16.58;;
63112;SDS011;49206;48.020;21.378;2022-11-15T08:40:53;27.42;;;16.38;;